Time;durP1;ratioP1;P1;durP2;ratioP2;P2;SDS_P1;SDS_P2;PMS_P1;PMS_P2;Temp;Humidity;BMP_temperature;BMP_pressure;BME280_temperature;BME280_humidity;BME280_pressure;Samples;Min_cycle;Max_cycle;Signal;HPM_P1;HPM_P2
2022/06/07 00:01:23;;;;;;;12.70;9.30;;;;;;;18.53;74.76;98302.33;106599;1277;22695;-83
2022/06/07 00:03:50;;;;;;;14.70;10.50;;;;;;;18.51;74.92;98301.10;106270;1277;138042;-83
2022/06/07 00:06:31;;;;;;;15.00;9.50;;;;;;;18.48;74.81;98299.70;106493;1277;22791;-83
2022/06/07 00:08:58;;;;;;;17.30;10.30;;;;;;;18.43;74.90;98293.17;106547;1277;138326;-83
2022/06/07 00:11:39;;;;;;;18.60;11.40;;;;;;;18.39;75.19;98294.32;106517;1278;24225;-84
2022/06/07 00:14:06;;;;;;;16.10;10.90;;;;;;;18.40;75.44;98295.80;106421;1277;138356;-83
2022/06/07 00:16:47;;;;;;;14.70;10.30;;;;;;;18.33;75.41;98296.79;106550;1277;22584;-83
2022/06/07 00:19:14;;;;;;;14.00;10.20;;;;;;;18.25;75.57;98297.25;106548;1281;25047;-83
2022/06/07 00:21:55;;;;;;;13.90;9.20;;;;;;;18.19;75.69;98296.56;106584;1278;138424;-83
2022/06/07 00:24:22;;;;;;;15.20;9.70;;;;;;;18.13;75.86;98294.67;106503;1277;25423;-83
2022/06/07 00:27:04;;;;;;;13.70;9.50;;;;;;;18.08;76.04;98297.22;106601;1277;138160;-83
2022/06/07 00:29:32;;;;;;;17.30;9.90;;;;;;;18.07;76.11;98295.23;106659;1278;24288;-83
2022/06/07 00:32:16;;;;;;;15.50;9.80;;;;;;;18.03;76.18;98291.46;106312;1280;138019;-83
2022/06/07 00:34:57;;;;;;;13.30;9.20;;;;;;;17.99;76.26;98288.59;106328;1277;25395;-84
2022/06/07 00:37:38;;;;;;;12.20;8.60;;;;;;;17.98;76.32;98289.67;106760;1276;139404;-84
2022/06/07 00:40:19;;;;;;;14.70;9.60;;;;;;;17.95;76.34;98289.15;106431;1277;24505;-83
2022/06/07 00:42:46;;;;;;;13.10;10.20;;;;;;;17.91;76.67;98284.97;106548;1277;25462;-84
2022/06/07 00:45:26;;;;;;;14.20;9.60;;;;;;;17.88;76.61;98278.50;106435;1277;137987;-84
2022/06/07 00:47:54;;;;;;;14.30;10.10;;;;;;;17.84;76.73;98274.34;106547;1277;23377;-84
2022/06/07 00:50:27;;;;;;;11.00;9.60;;;;;;;17.78;76.68;98272.66;106275;1277;138977;-84
2022/06/07 00:52:54;;;;;;;13.40;9.40;;;;;;;17.75;76.65;98272.21;106778;1277;22544;-84
2022/06/07 00:55:21;;;;;;;14.60;10.30;;;;;;;17.72;76.88;98275.55;106496;1277;22541;-84
2022/06/07 00:57:52;;;;;;;14.20;10.80;;;;;;;17.69;76.93;98278.30;106325;1278;138500;-84
2022/06/07 01:00:50;;;;;;;13.80;11.50;;;;;;;17.64;77.47;98280.13;106336;1278;23489;-84
2022/06/07 01:03:20;;;;;;;15.90;11.90;;;;;;;17.63;77.87;98275.02;106515;1277;138553;-84
2022/06/07 01:11:50;;;;;;;15.40;11.80;;;;;;;17.58;78.34;98278.27;106707;1277;32755;-84
2022/06/07 01:14:32;;;;;;;16.30;11.20;;;;;;;17.56;78.48;98276.42;106500;1277;138055;-84
2022/06/07 01:17:00;;;;;;;16.00;11.20;;;;;;;17.53;78.58;98277.35;106948;1277;22599;-85
2022/06/07 01:19:27;;;;;;;15.10;11.70;;;;;;;17.47;78.71;98275.27;106507;1278;22537;-84
2022/06/07 01:22:08;;;;;;;14.40;10.80;;;;;;;17.40;78.87;98278.24;106676;1277;30735;-84
2022/06/07 01:24:36;;;;;;;14.10;10.90;;;;;;;17.37;78.89;98276.11;106687;1277;22562;-84
2022/06/07 01:27:20;;;;;;;14.20;10.80;;;;;;;17.38;79.13;98273.63;106661;1277;138235;-84
2022/06/07 01:30:03;;;;;;;13.10;11.00;;;;;;;17.39;79.18;98273.95;107099;1277;22703;-84
2022/06/07 01:32:44;;;;;;;16.50;12.60;;;;;;;17.39;79.17;98272.08;106433;1277;138320;-84
2022/06/07 01:35:12;;;;;;;16.50;11.30;;;;;;;17.40;79.08;98269.98;106832;1277;22567;-84
2022/06/07 01:37:39;;;;;;;15.50;11.10;;;;;;;17.38;78.96;98268.67;106510;1277;139008;-84
2022/06/07 01:43:19;;;;;;;19.00;11.70;;;;;;;17.33;79.34;98266.31;106544;1277;24261;-84
2022/06/07 01:46:04;;;;;;;16.60;13.00;;;;;;;17.33;79.39;98265.87;106127;1278;138037;-84
2022/06/07 01:48:48;;;;;;;20.20;12.70;;;;;;;17.31;79.18;98263.32;106461;1277;25344;-84
2022/06/07 01:51:17;;;;;;;15.40;12.00;;;;;;;17.27;79.15;98262.09;106775;1277;138330;-84
2022/06/07 01:53:45;;;;;;;16.90;12.00;;;;;;;17.26;79.26;98259.52;106575;1277;22744;-84
2022/06/07 01:56:15;;;;;;;12.80;11.40;;;;;;;17.25;79.37;98260.30;106376;1277;138660;-85
2022/06/07 01:58:44;;;;;;;18.60;12.70;;;;;;;17.23;79.37;98259.11;106401;1277;22587;-85
2022/06/07 02:01:25;;;;;;;14.40;12.20;;;;;;;17.21;79.44;98257.48;106549;1277;23487;-85
2022/06/07 02:03:52;;;;;;;16.20;13.00;;;;;;;17.17;79.47;98257.26;106309;1277;137906;-83
2022/06/07 02:06:32;;;;;;;17.10;12.70;;;;;;;17.13;79.65;98259.34;106761;1277;22550;-85
2022/06/07 02:09:00;;;;;;;21.00;12.70;;;;;;;17.11;79.74;98258.65;106664;1277;139018;-86
2022/06/07 02:11:28;;;;;;;15.30;12.50;;;;;;;17.07;79.78;98257.71;106664;1277;22574;-84
2022/06/07 02:14:03;;;;;;;16.20;11.90;;;;;;;17.05;79.82;98255.52;106577;1277;138337;-85
2022/06/07 02:16:31;;;;;;;17.80;12.00;;;;;;;17.03;79.84;98256.27;106308;1279;22605;-85
2022/06/07 02:19:12;;;;;;;14.00;11.70;;;;;;;16.99;79.75;98251.96;106762;1277;24230;-84
2022/06/07 02:21:56;;;;;;;17.20;12.90;;;;;;;16.96;79.78;98248.30;106545;1277;138590;-84
2022/06/07 02:24:37;;;;;;;15.00;11.70;;;;;;;16.94;79.53;98246.46;106427;1278;22660;-86
2022/06/07 02:27:12;;;;;;;14.90;12.90;;;;;;;16.93;79.91;98243.88;106738;1277;138178;-84
2022/06/07 02:29:42;;;;;;;15.30;12.40;;;;;;;16.92;80.02;98244.77;106655;1277;23238;-84
2022/06/07 02:32:19;;;;;;;19.30;12.40;;;;;;;16.91;80.11;98244.03;106338;1278;138222;-84
2022/06/07 02:34:52;;;;;;;15.10;12.60;;;;;;;16.91;80.28;98241.98;107147;1277;22540;-84
2022/06/07 02:37:37;;;;;;;15.30;12.80;;;;;;;16.90;79.92;98243.81;106591;1276;26475;-84
2022/06/07 02:40:06;;;;;;;14.20;11.70;;;;;;;16.86;79.98;98248.03;106468;1277;25355;-85
2022/06/07 02:42:33;;;;;;;14.70;11.70;;;;;;;16.84;80.06;98243.09;106819;1278;22734;-85
2022/06/07 02:45:01;;;;;;;18.60;13.30;;;;;;;16.82;80.05;98242.06;106206;1277;138203;-85
2022/06/07 02:47:43;;;;;;;16.30;12.70;;;;;;;16.79;80.04;98243.68;106367;1277;23322;-85
2022/06/07 02:50:28;;;;;;;14.20;12.60;;;;;;;16.78;79.95;98248.91;106166;1277;140913;-84
2022/06/07 02:52:55;;;;;;;15.60;12.50;;;;;;;16.77;79.92;98250.57;106365;1277;24224;-85
2022/06/07 02:55:39;;;;;;;17.50;12.40;;;;;;;16.75;80.08;98249.88;106310;1275;138684;-85
2022/06/07 02:58:30;;;;;;;17.50;12.50;;;;;;;16.74;80.19;98245.05;106465;1277;22593;-85
2022/06/07 03:01:13;;;;;;;15.30;13.60;;;;;;;16.74;80.09;98247.73;106441;1277;24345;-85
2022/06/07 03:03:58;;;;;;;18.00;13.00;;;;;;;16.72;80.41;98248.09;106221;1277;137922;-84
2022/06/07 03:06:26;;;;;;;16.30;12.60;;;;;;;16.71;80.12;98247.99;106457;1277;22537;-84
2022/06/07 03:09:07;;;;;;;15.50;11.90;;;;;;;16.70;80.42;98245.46;106121;1277;138463;-84
2022/06/07 03:11:48;;;;;;;14.40;12.90;;;;;;;16.72;80.49;98243.52;106608;1277;22548;-85
2022/06/07 03:14:29;;;;;;;17.80;14.10;;;;;;;16.70;80.30;98243.26;106013;1280;138407;-85
2022/06/07 03:17:10;;;;;;;22.10;14.30;;;;;;;16.69;80.29;98245.14;106180;1277;25410;-85
2022/06/07 03:19:52;;;;;;;15.70;12.50;;;;;;;16.67;80.44;98245.77;106229;1277;138767;-84
2022/06/07 03:22:34;;;;;;;14.10;11.90;;;;;;;16.66;80.37;98249.08;106725;1277;22734;-85
2022/06/07 03:25:05;;;;;;;16.00;12.30;;;;;;;16.67;80.37;98248.73;106282;1277;23232;-84
2022/06/07 03:27:47;;;;;;;17.60;12.70;;;;;;;16.69;80.33;98249.66;106195;1277;138136;-84
2022/06/07 03:30:16;;;;;;;15.90;12.70;;;;;;;16.69;80.23;98245.59;106322;1277;25261;-85
2022/06/07 03:32:45;;;;;;;15.80;12.50;;;;;;;16.67;80.36;98245.38;106391;1277;138411;-85
2022/06/07 03:35:26;;;;;;;14.00;11.70;;;;;;;16.67;80.12;98244.18;106279;1276;22542;-84
2022/06/07 03:37:54;;;;;;;15.40;11.60;;;;;;;16.68;79.90;98244.89;106320;1278;139081;-85
2022/06/07 03:43:22;;;;;;;19.10;12.70;;;;;;;16.71;79.91;98244.09;106368;1277;22562;-85
2022/06/07 03:45:49;;;;;;;16.10;12.10;;;;;;;16.73;79.84;98243.85;106217;1277;137836;-85
2022/06/07 03:48:17;;;;;;;16.10;12.00;;;;;;;16.75;80.05;98249.49;106505;1277;22646;-85
2022/06/07 03:50:57;;;;;;;15.40;12.60;;;;;;;16.77;80.04;98247.87;106142;1277;138792;-85
2022/06/07 03:53:39;;;;;;;14.80;13.10;;;;;;;16.80;80.00;98243.95;106241;1277;25333;-85
2022/06/07 03:56:08;;;;;;;14.80;12.30;;;;;;;16.80;79.78;98241.47;106208;1277;138000;-86
2022/06/07 03:58:39;;;;;;;14.00;12.60;;;;;;;16.82;79.98;98237.65;106439;1277;23310;-85
2022/06/07 04:01:10;;;;;;;16.60;12.10;;;;;;;16.85;80.02;98238.02;106428;1277;22583;-85
2022/06/07 04:03:38;;;;;;;13.90;12.00;;;;;;;16.88;80.15;98235.20;106176;1277;138485;-85
2022/06/07 04:06:26;;;;;;;19.00;13.30;;;;;;;16.94;80.19;98236.21;106355;1277;25557;-85
2022/06/07 04:09:10;;;;;;;18.30;12.80;;;;;;;16.99;80.15;98240.08;106469;1277;138894;-85
2022/06/07 04:11:54;;;;;;;14.30;11.30;;;;;;;16.96;79.61;98241.77;106373;1277;22571;-85
2022/06/07 04:14:22;;;;;;;19.00;13.00;;;;;;;16.85;79.22;98239.89;106421;1277;138071;-86
2022/06/07 04:17:04;;;;;;;17.70;13.00;;;;;;;16.76;79.56;98238.48;106053;1281;22824;-85
2022/06/07 04:19:34;;;;;;;13.90;11.50;;;;;;;16.73;79.88;98235.77;106186;1277;22739;-86
2022/06/07 04:22:03;;;;;;;14.00;12.30;;;;;;;16.78;80.47;98234.23;106336;1278;139190;-85
2022/06/07 04:24:38;;;;;;;15.30;11.90;;;;;;;16.88;80.63;98235.57;106399;1277;25467;-85
2022/06/07 04:27:06;;;;;;;19.20;13.50;;;;;;;16.96;80.58;98237.31;106427;1277;138344;-85
2022/06/07 04:29:34;;;;;;;15.40;12.00;;;;;;;16.99;80.57;98239.73;106423;1277;22567;-85
2022/06/07 04:32:16;;;;;;;15.20;12.10;;;;;;;16.99;80.46;98233.75;106168;1277;138730;-85
2022/06/07 04:34:44;;;;;;;13.70;11.50;;;;;;;17.04;80.57;98233.02;106390;1277;23243;-85
2022/06/07 04:37:27;;;;;;;14.50;11.90;;;;;;;17.12;80.65;98233.05;106050;1277;23037;-85
2022/06/07 04:40:13;;;;;;;16.60;12.80;;;;;;;17.22;80.51;98229.35;106634;1277;25407;-86
2022/06/07 04:42:41;;;;;;;20.30;13.50;;;;;;;17.31;80.48;98229.63;106646;1277;22557;-85
2022/06/07 04:45:26;;;;;;;17.90;13.30;;;;;;;17.38;80.69;98231.90;106190;1277;137995;-85
2022/06/07 04:48:12;;;;;;;19.40;13.30;;;;;;;17.47;80.54;98232.00;106257;1277;22669;-86
2022/06/07 04:50:46;;;;;;;19.40;13.20;;;;;;;17.55;80.54;98230.46;106406;1277;138600;-85
2022/06/07 04:53:14;;;;;;;16.00;12.50;;;;;;;17.62;80.72;98231.19;106608;1277;24284;-85
2022/06/07 04:55:41;;;;;;;16.20;13.30;;;;;;;17.71;80.68;98234.09;106120;1277;138944;-85
2022/06/07 04:58:23;;;;;;;18.80;14.00;;;;;;;17.80;80.64;98240.04;106044;1277;22581;-86
2022/06/07 05:01:18;;;;;;;21.30;14.70;;;;;;;17.88;80.55;98238.84;106784;1277;23426;-85
2022/06/07 05:03:59;;;;;;;18.70;14.20;;;;;;;17.97;80.57;98231.69;106518;1277;137776;-86
2022/06/07 05:06:32;;;;;;;19.60;14.10;;;;;;;18.06;80.50;98229.25;106184;1277;22625;-85
2022/06/07 05:09:12;;;;;;;18.10;13.80;;;;;;;18.17;80.49;98231.52;106245;1277;139363;-86
2022/06/07 05:11:54;;;;;;;19.50;13.10;;;;;;;18.26;80.34;98230.91;106443;1276;24399;-86
2022/06/07 05:14:23;;;;;;;16.30;14.10;;;;;;;18.35;80.19;98230.42;106215;1277;138686;-86
2022/06/07 05:16:51;;;;;;;18.20;14.40;;;;;;;18.44;80.24;98233.64;106828;1277;22753;-85
2022/06/07 05:19:24;;;;;;;16.90;13.20;;;;;;;18.56;80.18;98233.48;106410;1277;22551;-85
2022/06/07 05:21:57;;;;;;;20.30;12.80;;;;;;;18.65;79.77;98231.34;106376;1277;138027;-86
2022/06/07 05:24:24;;;;;;;16.00;12.10;;;;;;;18.73;79.46;98231.70;106194;1277;25562;-86
2022/06/07 05:27:05;;;;;;;18.60;12.70;;;;;;;18.82;79.23;98233.59;106117;1277;138767;-86
2022/06/07 05:29:53;;;;;;;20.30;13.20;;;;;;;18.91;78.94;98236.13;106648;1277;22563;-85
2022/06/07 05:32:46;;;;;;;16.30;11.30;;;;;;;19.00;78.63;98235.35;106758;1277;138479;-86
2022/06/07 05:35:32;;;;;;;17.20;10.90;;;;;;;19.09;78.54;98238.54;106623;1277;22570;-86
2022/06/07 05:38:05;;;;;;;16.60;8.80;;;;;;;19.15;78.12;98237.16;106352;1277;138107;-86
2022/06/07 05:40:48;;;;;;;14.10;7.30;;;;;;;19.24;77.35;98236.32;107108;1276;22657;-86
2022/06/07 05:43:18;;;;;;;18.50;7.30;;;;;;;19.32;76.75;98233.10;106573;1280;22711;-85
2022/06/07 05:45:51;;;;;;;12.80;7.00;;;;;;;19.41;76.41;98231.38;106453;1276;138310;-85
2022/06/07 05:48:37;;;;;;;12.00;6.80;;;;;;;19.50;75.61;98234.65;106529;1277;25493;-86
2022/06/07 05:51:07;;;;;;;12.90;7.00;;;;;;;19.57;75.30;98235.30;106361;1277;138174;-85
2022/06/07 05:53:36;;;;;;;11.40;6.90;;;;;;;19.63;74.92;98237.96;106817;1277;22799;-85
2022/06/07 05:56:08;;;;;;;;;;;;;;;19.69;74.59;98237.99;107129;1276;139419;-83
2022/06/07 05:58:50;;;;;;;13.20;6.40;;;;;;;19.75;74.26;98240.93;106482;1277;22609;-83
2022/06/07 06:01:18;;;;;;;13.80;7.00;;;;;;;19.81;73.94;98237.48;107149;1277;22549;-83
2022/06/07 06:04:03;;;;;;;11.50;6.60;;;;;;;19.89;73.30;98238.23;106550;1277;138981;-83
2022/06/07 06:06:54;;;;;;;16.20;6.90;;;;;;;19.96;72.85;98236.14;106728;1277;25496;-85
2022/06/07 06:12:11;;;;;;;18.00;6.30;;;;;;;20.12;72.04;98241.52;106672;1277;22565;-84
2022/06/07 06:14:53;;;;;;;12.20;5.50;;;;;;;20.20;71.68;98232.38;107069;1277;138785;-85
2022/06/07 06:17:25;;;;;;;16.60;6.40;;;;;;;20.30;71.62;98231.14;107013;1277;25261;-84
2022/06/07 06:19:57;;;;;;;15.10;6.90;;;;;;;20.40;71.43;98232.48;106592;1276;137867;-84
2022/06/07 06:22:24;;;;;;;11.80;7.10;;;;;;;20.50;71.01;98229.31;106548;1277;22853;-84
2022/06/07 06:25:04;;;;;;;14.70;7.10;;;;;;;20.59;70.77;98232.34;107390;1277;22690;-84
2022/06/07 06:27:33;;;;;;;11.20;5.90;;;;;;;20.68;70.87;98230.46;106875;1277;138038;-84
2022/06/07 06:30:17;;;;;;;11.30;5.50;;;;;;;20.78;70.09;98229.54;107428;1277;22572;-82
2022/06/07 06:32:51;;;;;;;5.60;4.70;;;;;;;20.88;69.06;98230.16;107278;1277;137903;-82
2022/06/07 06:35:26;;;;;;;6.50;5.10;;;;;;;20.94;67.97;98228.58;107017;1277;22609;-82
2022/06/07 06:37:55;;;;;;;9.50;6.00;;;;;;;21.00;68.10;98227.67;106608;1277;137850;-82
2022/06/07 06:40:22;;;;;;;10.20;5.20;;;;;;;21.06;67.89;98228.09;106383;1277;22679;-82
2022/06/07 06:42:54;;;;;;;6.80;3.90;;;;;;;21.16;66.85;98228.00;106417;1277;22877;-84
2022/06/07 06:45:35;;;;;;;7.70;4.10;;;;;;;21.26;66.05;98226.45;106386;1277;137677;-84
2022/06/07 06:48:22;;;;;;;4.60;4.00;;;;;;;21.36;65.51;98224.77;107443;1277;23236;-84
2022/06/07 06:51:08;;;;;;;6.20;4.10;;;;;;;21.47;64.98;98223.52;106993;1277;137574;-84
2022/06/07 06:53:37;;;;;;;6.50;3.90;;;;;;;21.58;65.06;98222.15;107296;1277;22654;-84
2022/06/07 06:56:12;;;;;;;5.90;3.70;;;;;;;21.68;64.11;98219.59;107085;1277;137881;-83
2022/06/07 06:58:42;;;;;;;5.40;4.40;;;;;;;21.74;63.39;98217.20;106645;1277;30460;-84
2022/06/07 07:01:18;;;;;;;5.70;4.10;;;;;;;21.82;63.33;98215.97;106201;1277;22622;-83
2022/06/07 07:03:45;;;;;;;9.10;4.20;;;;;;;21.89;62.70;98212.45;106389;1276;138221;-84
2022/06/07 07:06:28;;;;;;;6.20;3.90;;;;;;;21.94;61.57;98210.05;106454;1277;22589;-83
2022/06/07 07:08:57;;;;;;;10.90;5.30;;;;;;;22.02;61.84;98206.91;106509;1277;137787;-83
2022/06/07 07:11:30;;;;;;;5.10;4.00;;;;;;;22.12;62.00;98202.91;106340;1277;22694;-83
2022/06/07 07:14:02;;;;;;;5.90;3.50;;;;;;;22.26;61.31;98207.33;106562;1277;137792;-82
2022/06/07 07:16:32;;;;;;;4.30;3.70;;;;;;;22.38;61.04;98201.71;106953;1277;22569;-82
2022/06/07 07:19:03;;;;;;;4.10;3.30;;;;;;;22.52;60.83;98199.23;106578;1276;23238;-82
2022/06/07 07:21:38;;;;;;;6.70;3.60;;;;;;;22.65;60.49;98197.36;106331;1277;138001;-83
2022/06/07 07:24:24;;;;;;;4.90;3.50;;;;;;;22.79;60.13;98197.27;106288;1280;22554;-83
2022/06/07 07:26:55;;;;;;;6.40;4.30;;;;;;;22.91;60.00;98196.81;106648;1277;137708;-83
2022/06/07 07:29:25;;;;;;;6.90;4.70;;;;;;;23.05;59.97;98191.77;106604;1277;25372;-83
2022/06/07 07:31:55;;;;;;;5.20;3.50;;;;;;;23.19;59.27;98191.85;106481;1276;137764;-83
2022/06/07 07:34:29;;;;;;;5.50;3.50;;;;;;;23.33;59.25;98187.67;106557;1277;24378;-83
2022/06/07 07:36:59;;;;;;;6.10;4.20;;;;;;;23.52;58.76;98184.81;107804;1276;25353;-83
2022/06/07 07:39:39;;;;;;;4.60;3.70;;;;;;;23.70;58.05;98183.05;106629;1277;137884;-83
2022/06/07 07:42:37;;;;;;;;;;;;;;;23.87;57.28;98183.43;106859;1277;24208;-83
2022/06/07 07:45:39;;;;;;;6.90;3.70;;;;;;;24.08;56.02;98180.08;106764;1277;124692;-83
2022/06/07 07:48:24;;;;;;;4.90;3.40;;;;;;;24.25;56.07;98173.52;106832;1277;25347;-83
2022/06/07 07:51:14;;;;;;;6.10;3.90;;;;;;;24.47;56.37;98173.60;106711;1277;137836;-83
2022/06/07 07:54:17;;;;;;;4.70;3.40;;;;;;;24.72;55.20;98169.52;106335;1277;22547;-83
2022/06/07 07:57:17;;;;;;;6.60;3.60;;;;;;;24.88;53.51;98169.90;106406;1277;137497;-83
2022/06/07 07:59:46;;;;;;;6.40;3.60;;;;;;;24.96;53.15;98164.69;106523;1277;22837;-83
2022/06/07 08:02:27;;;;;;;5.50;4.00;;;;;;;25.05;52.57;98163.52;105781;1277;137623;-82
2022/06/07 08:05:17;;;;;;;5.00;3.30;;;;;;;25.15;52.10;98165.46;107087;1277;25284;-83
2022/06/07 08:07:46;;;;;;;3.80;3.10;;;;;;;25.20;51.76;98168.15;106443;1275;137777;-82
2022/06/07 08:10:13;;;;;;;6.00;3.10;;;;;;;25.28;52.05;98167.00;106708;1277;25306;-83
2022/06/07 08:12:40;;;;;;;3.30;3.10;;;;;;;25.40;51.96;98170.80;106650;1277;22558;-83
2022/06/07 08:15:23;;;;;;;3.00;2.70;;;;;;;25.58;51.15;98171.58;106191;1277;138165;-82
2022/06/07 08:18:05;;;;;;;3.90;2.60;;;;;;;25.76;49.35;98168.14;106673;1277;22694;-83
2022/06/07 08:20:46;;;;;;;3.50;2.80;;;;;;;25.91;49.21;98167.81;106795;1277;137819;-82
2022/06/07 08:23:14;;;;;;;5.00;2.60;;;;;;;26.01;48.82;98163.01;106399;1277;25585;-82
2022/06/07 08:25:59;;;;;;;3.50;2.60;;;;;;;26.02;48.83;98163.84;106746;1277;137727;-82
2022/06/07 08:28:28;;;;;;;2.80;2.40;;;;;;;26.01;47.89;98163.21;106418;1277;22568;-82
2022/06/07 08:30:55;;;;;;;4.40;2.60;;;;;;;26.00;47.13;98164.02;107726;1277;23408;-82
2022/06/07 08:38:57;;;;;;;4.10;2.80;;;;;;;26.13;44.71;98162.45;106634;1276;138528;-82
2022/06/07 08:41:36;;;;;;;3.10;2.80;;;;;;;26.17;45.31;98163.91;107144;1275;22707;-82
2022/06/07 08:44:29;;;;;;;3.30;2.90;;;;;;;26.28;45.39;98164.62;106992;1277;138273;-80
2022/06/07 08:47:05;;;;;;;4.00;2.70;;;;;;;26.45;45.45;98155.42;107091;1277;22607;-80
2022/06/07 08:49:33;;;;;;;4.40;2.70;;;;;;;26.66;45.49;98151.61;107014;1277;22594;-82
2022/06/07 08:52:22;;;;;;;4.50;3.00;;;;;;;26.88;44.38;98148.11;106580;1277;137975;-81
2022/06/07 08:54:49;;;;;;;3.60;2.50;;;;;;;26.94;44.33;98145.45;106397;1277;25267;-80
2022/06/07 08:57:23;;;;;;;2.90;2.70;;;;;;;26.93;44.34;98143.99;106505;1278;138099;-82
2022/06/07 09:00:22;;;;;;;4.00;2.90;;;;;;;26.98;44.41;98144.92;106967;1277;22556;-82
2022/06/07 09:03:09;;;;;;;2.90;2.60;;;;;;;27.00;43.31;98143.44;106910;1277;137836;-82
2022/06/07 09:05:37;;;;;;;3.00;2.60;;;;;;;26.97;42.77;98140.58;106899;1275;22595;-82
2022/06/07 09:08:05;;;;;;;2.90;2.70;;;;;;;26.98;43.52;98139.48;107358;1277;138373;-82
2022/06/07 09:13:24;;;;;;;5.70;2.80;;;;;;;27.07;43.18;98133.64;106654;1277;25358;-81
2022/06/07 09:15:54;;;;;;;4.00;2.70;;;;;;;27.09;43.71;98133.14;106142;1277;137556;-82
2022/06/07 09:18:27;;;;;;;2.70;2.50;;;;;;;27.11;43.25;98130.21;106403;1277;22536;-82
2022/06/07 09:20:58;;;;;;;3.60;2.70;;;;;;;27.16;43.35;98134.88;107073;1276;138037;-82
2022/06/07 09:23:33;;;;;;;2.80;2.60;;;;;;;27.17;43.68;98130.45;106439;1277;25316;-82
2022/06/07 09:26:38;;;;;;;6.00;3.10;;;;;;;27.21;43.69;98132.77;106114;1277;137596;-81
2022/06/07 09:29:22;;;;;;;5.00;2.90;;;;;;;27.21;43.32;98123.09;106551;1277;22702;-81
2022/06/07 09:32:15;;;;;;;3.40;2.60;;;;;;;27.25;42.82;98123.52;106057;1277;137644;-81
2022/06/07 09:35:05;;;;;;;5.20;2.70;;;;;;;27.28;42.92;98124.02;106128;1276;24441;-81
2022/06/07 09:37:41;;;;;;;2.80;2.60;;;;;;;27.26;43.33;98127.23;106535;1277;22987;-81
2022/06/07 09:40:29;;;;;;;5.50;3.00;;;;;;;27.18;43.37;98124.95;106167;1277;25652;-82
2022/06/07 09:43:13;;;;;;;4.30;3.20;;;;;;;27.17;43.30;98118.93;106175;1277;22560;-82
2022/06/07 09:45:46;;;;;;;4.40;3.20;;;;;;;27.33;43.58;98119.50;106089;1277;137610;-81
2022/06/07 09:48:26;;;;;;;7.10;3.10;;;;;;;27.52;43.05;98114.79;106251;1277;22551;-81
2022/06/07 09:51:07;;;;;;;4.10;2.80;;;;;;;27.73;41.89;98106.52;106625;1277;137505;-81
2022/06/07 09:53:38;;;;;;;6.90;3.20;;;;;;;27.94;41.74;98107.46;106285;1277;23947;-81
2022/06/07 09:56:40;;;;;;;6.70;3.20;;;;;;;28.14;41.34;98109.52;106329;1276;137798;-81
2022/06/07 09:59:33;;;;;;;3.30;3.00;;;;;;;28.20;41.13;98105.64;106222;1277;25508;-81
2022/06/07 10:02:36;;;;;;;3.30;3.00;;;;;;;28.29;41.09;98101.31;106201;1277;138222;-80
2022/06/07 10:05:21;;;;;;;8.70;2.60;;;;;;;28.52;41.54;98095.66;106720;1277;22562;-83
2022/06/07 10:08:34;;;;;;;6.50;3.10;;;;;;;28.75;40.32;98093.34;106260;1277;138042;-82
2022/06/07 10:11:17;;;;;;;4.10;2.80;;;;;;;28.85;40.01;98092.14;106417;1277;22616;-82
2022/06/07 10:13:53;;;;;;;3.90;3.00;;;;;;;28.98;38.78;98087.77;106185;1277;138357;-82
2022/06/07 10:17:11;;;;;;;7.00;2.80;;;;;;;29.20;39.13;98086.14;105995;1276;22726;-81
2022/06/07 10:20:22;;;;;;;2.60;2.40;;;;;;;29.34;37.93;98086.98;106399;1276;137680;-81
2022/06/07 10:23:45;;;;;;;3.90;2.90;;;;;;;29.38;37.04;98085.98;106438;1277;24902;-81
2022/06/07 10:26:37;;;;;;;4.50;3.60;;;;;;;29.48;37.63;98081.63;106138;1277;137516;-82
2022/06/07 10:29:33;;;;;;;3.80;2.70;;;;;;;29.53;36.88;98078.50;106373;1277;25106;-82
2022/06/07 10:32:21;;;;;;;5.70;2.60;;;;;;;29.62;37.35;98076.36;106174;1277;137893;-82
2022/06/07 10:35:21;;;;;;;4.50;2.60;;;;;;;29.78;37.23;98076.17;106391;1277;22803;-79
2022/06/07 10:38:25;;;;;;;5.70;2.70;;;;;;;29.86;36.12;98072.74;106043;1276;137685;-80
2022/06/07 10:40:55;;;;;;;3.50;3.10;;;;;;;29.94;36.16;98072.52;106520;1277;24340;-81
2022/06/07 10:43:41;;;;;;;3.70;2.90;;;;;;;30.04;35.12;98067.31;106449;1277;30572;-81
2022/06/07 10:46:23;;;;;;;4.60;2.90;;;;;;;30.02;35.15;98062.81;106404;1277;22579;-81
2022/06/07 10:49:13;;;;;;;3.60;2.60;;;;;;;30.17;35.76;98056.63;106155;1277;24240;-81
2022/06/07 10:52:21;;;;;;;13.90;3.10;;;;;;;30.38;35.64;98046.02;106813;1277;137281;-81
2022/06/07 10:55:13;;;;;;;7.40;3.20;;;;;;;30.55;35.14;98039.50;106213;1277;22630;-81
2022/06/07 10:57:51;;;;;;;5.10;2.90;;;;;;;30.68;34.38;98035.58;106275;1277;137834;-80
2022/06/07 11:00:46;;;;;;;13.50;3.10;;;;;;;30.70;35.41;98038.42;106250;1277;22612;-81
2022/06/07 11:03:38;;;;;;;5.30;3.30;;;;;;;30.85;35.78;98034.69;106344;1277;137837;-81
2022/06/07 11:09:21;;;;;;;4.70;3.00;;;;;;;30.79;35.32;98031.17;106169;1277;137495;-81
2022/06/07 11:11:54;;;;;;;6.10;3.30;;;;;;;30.80;34.54;98026.76;106138;1277;22537;-81
2022/06/07 11:14:44;;;;;;;4.10;3.10;;;;;;;30.49;34.25;98023.00;106177;1277;138148;-78
2022/06/07 11:17:17;;;;;;;7.40;3.10;;;;;;;30.28;35.18;98021.02;106654;1277;25382;-80
2022/06/07 11:20:01;;;;;;;8.00;3.60;;;;;;;30.40;34.83;98017.63;105819;1277;139050;-79
2022/06/07 11:22:37;;;;;;;5.80;3.10;;;;;;;30.39;33.74;98010.87;107023;1277;22564;-80
2022/06/07 11:25:42;;;;;;;6.30;3.00;;;;;;;30.37;34.65;98004.59;107222;1277;22570;-79
2022/06/07 11:28:25;;;;;;;4.30;2.60;;;;;;;30.53;34.86;98005.68;106870;1277;23355;-79
2022/06/07 11:31:25;;;;;;;4.50;3.10;;;;;;;30.75;34.23;98001.19;106757;1280;22610;-79
2022/06/07 11:34:02;;;;;;;3.50;2.80;;;;;;;30.92;34.27;97997.70;106628;1277;137572;-79
2022/06/07 11:36:33;;;;;;;7.30;3.40;;;;;;;31.12;34.15;97998.94;106956;1277;22601;-79
2022/06/07 11:39:25;;;;;;;5.00;3.10;;;;;;;31.23;33.55;97991.13;107028;1277;137641;-79
2022/06/07 11:42:20;;;;;;;6.70;2.90;;;;;;;31.39;33.72;97987.82;107547;1277;22587;-80
2022/06/07 11:45:18;;;;;;;4.80;2.90;;;;;;;31.59;33.56;97984.95;106637;1277;137863;-79
2022/06/07 11:47:45;;;;;;;4.40;2.40;;;;;;;31.75;33.57;97980.88;106881;1277;23953;-78
2022/06/07 11:50:45;;;;;;;2.70;2.50;;;;;;;31.97;32.72;97980.27;106237;1277;137860;-78
2022/06/07 11:53:30;;;;;;;3.30;2.80;;;;;;;32.07;31.98;97972.20;106355;1277;24316;-78
2022/06/07 11:56:23;;;;;;;3.40;2.70;;;;;;;32.02;31.58;97972.72;106182;1277;137897;-78
2022/06/07 11:58:54;;;;;;;2.90;2.60;;;;;;;32.09;31.95;97971.88;106422;1277;22700;-78
2022/06/07 12:01:45;;;;;;;3.00;2.60;;;;;;;32.16;31.48;97968.82;106800;1277;22668;-78
2022/06/07 12:04:34;;;;;;;6.60;2.80;;;;;;;32.18;31.33;97962.46;106347;1277;22563;-78
2022/06/07 12:07:42;;;;;;;4.70;3.00;;;;;;;32.23;31.17;97962.23;106475;1277;24240;-78
2022/06/07 12:10:31;;;;;;;6.50;3.10;;;;;;;32.21;31.07;97949.98;106414;1277;24640;-78
2022/06/07 12:13:49;;;;;;;6.40;2.80;;;;;;;32.35;31.21;97948.45;106291;1277;24308;-78
2022/06/07 12:16:38;;;;;;;7.40;3.20;;;;;;;32.28;31.00;97949.17;106222;1277;25545;-79
2022/06/07 12:19:21;;;;;;;4.50;3.10;;;;;;;32.04;30.94;97944.98;106238;1277;25366;-78
2022/06/07 12:22:05;;;;;;;3.30;3.00;;;;;;;31.83;31.37;97943.00;106016;1280;137552;-78
2022/06/07 12:25:00;;;;;;;4.20;3.00;;;;;;;31.81;31.42;97940.58;106222;1277;24406;-78
2022/06/07 12:27:51;;;;;;;6.90;3.50;;;;;;;31.85;31.66;97937.61;106466;1277;137741;-78
2022/06/07 12:30:27;;;;;;;4.30;2.90;;;;;;;31.94;31.02;97931.04;106251;1277;22593;-78
2022/06/07 12:32:56;;;;;;;3.40;2.90;;;;;;;32.12;31.41;97928.25;106266;1277;137755;-79
2022/06/07 12:35:27;;;;;;;4.10;3.10;;;;;;;32.29;30.50;97933.31;106532;1279;25278;-78